createdAt,value
2018-05-10T00:01:40.661Z,78.00
2018-05-10T00:04:07.992Z,79.20
2018-05-10T00:06:34.240Z,79.30
2018-05-10T00:09:01.511Z,80.00
2018-05-10T00:11:28.842Z,80.30
2018-05-10T00:13:55.048Z,80.40
2018-05-10T00:16:21.248Z,79.90
2018-05-10T00:18:48.909Z,79.00
2018-05-10T00:21:16.775Z,84.50
2018-05-10T00:23:43.734Z,80.00
2018-05-10T00:26:10.704Z,79.00
2018-05-10T00:28:36.952Z,79.00
2018-05-10T00:31:03.179Z,79.70
2018-05-10T00:33:29.485Z,79.40
2018-05-10T00:35:55.943Z,79.10
2018-05-10T00:38:22.168Z,78.20
2018-05-10T00:40:48.384Z,79.20
2018-05-10T00:43:15.371Z,80.60
2018-05-10T00:45:41.907Z,80.50
2018-05-10T00:48:08.565Z,77.90
2018-05-10T00:50:35.300Z,80.00
2018-05-10T00:53:01.957Z,80.40
2018-05-10T00:55:28.165Z,79.10
2018-05-10T00:57:54.688Z,78.80
2018-05-10T01:00:22.457Z,78.90
2018-05-10T01:02:50.749Z,78.30
2018-05-10T01:05:17.798Z,79.00
2018-05-10T01:07:45.187Z,81.00
2018-05-10T01:10:11.964Z,81.00
2018-05-10T01:12:38.210Z,77.70
2018-05-10T01:15:04.449Z,79.60
2018-05-10T01:17:31.824Z,79.00
2018-05-10T01:19:59.273Z,79.20
2018-05-10T01:22:25.495Z,79.20
2018-05-10T01:24:51.718Z,79.10
2018-05-10T01:27:17.950Z,78.90
2018-05-10T01:29:44.176Z,77.90
2018-05-10T01:32:10.469Z,78.50
2018-05-10T01:34:37.448Z,78.90
2018-05-10T01:37:04.262Z,78.90
2018-05-10T01:39:31.205Z,79.00
2018-05-10T01:41:58.149Z,78.70
2018-05-10T01:44:25.406Z,78.60
2018-05-10T01:46:52.067Z,79.50
2018-05-10T01:49:19.752Z,79.20
2018-05-10T01:51:46.406Z,79.20
2018-05-10T01:54:13.325Z,79.30
2018-05-10T01:56:40.641Z,78.70
2018-05-10T01:59:06.869Z,78.70
2018-05-10T02:01:33.672Z,78.80
2018-05-10T02:03:59.916Z,78.40
2018-05-10T02:06:26.741Z,78.70
2018-05-10T02:08:54.168Z,78.90
2018-05-10T02:11:20.661Z,78.90
2018-05-10T02:13:46.877Z,79.50
2018-05-10T02:16:14.344Z,81.00
2018-05-10T02:18:41.902Z,80.10
2018-05-10T02:21:08.861Z,79.00
2018-05-10T02:23:35.813Z,80.30
2018-05-10T02:26:02.826Z,80.50
2018-05-10T02:28:29.653Z,80.90
2018-05-10T02:30:55.878Z,80.30
2018-05-10T02:33:22.097Z,80.70
2018-05-10T02:35:48.341Z,79.90
2018-05-10T02:38:14.549Z,79.90
2018-05-10T02:40:41.645Z,80.00
2018-05-10T02:43:08.437Z,80.50
2018-05-10T02:45:35.909Z,80.10
2018-05-10T02:48:03.253Z,81.20
2018-05-10T02:50:30.013Z,81.20
2018-05-10T02:52:57.797Z,81.50
2018-05-10T02:55:24.023Z,81.60
2018-05-10T02:57:50.246Z,81.70
2018-05-10T03:00:17.240Z,81.40
2018-05-10T03:02:43.894Z,81.40
2018-05-10T03:05:10.734Z,80.70
2018-05-10T03:07:37.376Z,80.30
2018-05-10T03:10:04.240Z,80.80
2018-05-10T03:12:30.449Z,80.60
2018-05-10T03:14:57.261Z,80.10
2018-05-10T03:17:24.221Z,81.10
2018-05-10T03:19:51.673Z,82.10
2018-05-10T03:22:18.625Z,84.20
2018-05-10T03:24:45.576Z,81.30
2018-05-10T03:27:12.559Z,81.70
2018-05-10T03:29:38.781Z,81.80
2018-05-10T03:32:05.085Z,80.90
2018-05-10T03:34:32.061Z,80.80
2018-05-10T03:36:58.277Z,80.80
2018-05-10T03:39:25.664Z,81.60
2018-05-10T03:41:52.285Z,81.60
2018-05-10T03:44:19.257Z,81.40
2018-05-10T03:46:46.181Z,81.50
2018-05-10T03:49:13.713Z,82.60
2018-05-10T03:51:40.342Z,82.60
2018-05-10T03:54:06.560Z,81.90
2018-05-10T03:56:32.773Z,81.80
2018-05-10T03:58:58.998Z,81.70
2018-05-10T04:01:26.814Z,80.90
2018-05-10T04:04:06.092Z,80.90
2018-05-10T04:06:46.032Z,84.30
2018-05-10T04:09:25.030Z,84.30
2018-05-10T04:11:53.144Z,83.30
2018-05-10T04:14:20.133Z,82.60
2018-05-10T04:16:46.365Z,82.70
2018-05-10T04:19:13.281Z,83.60
2018-05-10T04:21:40.233Z,84.50
2018-05-10T04:24:07.201Z,83.50
2018-05-10T04:26:33.449Z,83.50
2018-05-10T04:29:00.028Z,83.30
2018-05-10T04:31:26.258Z,83.10
2018-05-10T04:33:52.470Z,82.60
2018-05-10T04:36:20.115Z,83.40
2018-05-10T04:38:46.978Z,83.20
2018-05-10T04:41:13.192Z,82.80
2018-05-10T04:43:39.414Z,82.40
2018-05-10T04:46:06.742Z,83.40
2018-05-10T04:48:33.369Z,83.50
2018-05-10T04:51:00.153Z,84.10
2018-05-10T04:53:27.102Z,83.80
2018-05-10T04:55:54.038Z,84.40
2018-05-10T04:58:20.745Z,84.40
2018-05-10T05:00:47.398Z,83.20
2018-05-10T05:03:13.942Z,82.60
2018-05-10T05:05:40.159Z,82.10
2018-05-10T05:08:06.991Z,82.50
2018-05-10T05:10:33.716Z,82.00
2018-05-10T05:13:00.702Z,81.30
2018-05-10T05:15:27.342Z,81.30
2018-05-10T05:17:53.560Z,80.90
2018-05-10T05:20:20.359Z,80.40
2018-05-10T05:22:46.590Z,80.50
2018-05-10T05:25:12.809Z,81.00
2018-05-10T05:27:39.049Z,80.50
2018-05-10T05:30:05.261Z,80.00
2018-05-10T05:32:32.245Z,80.90
2018-05-10T05:34:58.464Z,80.90
2018-05-10T05:37:24.986Z,80.60
2018-05-10T05:39:51.213Z,81.40
2018-05-10T05:42:17.433Z,80.50
2018-05-10T05:44:44.369Z,79.80
2018-05-10T05:47:11.927Z,79.20
2018-05-10T05:49:39.593Z,79.30
2018-05-10T05:52:06.911Z,78.70
2018-05-10T05:54:33.137Z,78.70
2018-05-10T05:56:59.889Z,78.60
2018-05-10T05:59:26.152Z,78.30
2018-05-10T06:01:52.957Z,77.50
2018-05-10T06:04:19.197Z,78.30
2018-05-10T06:06:46.005Z,76.80
2018-05-10T06:09:13.406Z,75.40
2018-05-10T06:11:40.423Z,75.40
2018-05-10T06:14:06.679Z,75.40
2018-05-10T06:16:33.613Z,75.60
2018-05-10T06:19:00.541Z,75.60
2018-05-10T06:21:27.508Z,75.30
2018-05-10T06:23:53.736Z,75.30
2018-05-10T06:26:20.718Z,74.50
2018-05-10T06:28:46.953Z,74.40
2018-05-10T06:31:13.432Z,73.60
2018-05-10T06:33:40.272Z,73.20
2018-05-10T06:36:06.493Z,72.60
2018-05-10T06:38:32.729Z,72.00
2018-05-10T06:40:58.958Z,71.90
2018-05-10T06:43:25.677Z,70.60
2018-05-10T06:45:52.371Z,71.50
2018-05-10T06:48:18.942Z,71.70
2018-05-10T06:50:46.342Z,68.60
2018-05-10T06:53:12.569Z,68.50
2018-05-10T06:55:39.334Z,69.60
2018-05-10T06:58:05.605Z,68.60
2018-05-10T07:00:32.512Z,68.80
2018-05-10T07:02:59.417Z,68.10
2018-05-10T07:05:26.990Z,67.90
2018-05-10T07:07:53.569Z,67.60
2018-05-10T07:10:21.081Z,67.40
2018-05-10T07:12:48.062Z,66.60
2018-05-10T07:15:14.262Z,66.40
2018-05-10T07:17:41.281Z,65.40
2018-05-10T07:20:08.071Z,65.30
2018-05-10T07:22:35.030Z,64.90
2018-05-10T07:25:01.258Z,64.90
2018-05-10T07:27:27.508Z,64.90
2018-05-10T07:29:54.163Z,64.40
2018-05-10T07:32:21.713Z,65.00
2018-05-10T07:34:48.442Z,63.60
2018-05-10T07:37:15.436Z,61.80
2018-05-10T07:39:42.571Z,61.80
2018-05-10T07:42:08.833Z,60.00
2018-05-10T07:44:36.041Z,61.10
2018-05-10T07:47:03.574Z,59.10
2018-05-10T07:49:30.463Z,59.10
2018-05-10T07:51:57.188Z,58.60
2018-05-10T07:54:24.172Z,59.40
2018-05-10T07:56:50.387Z,59.30
2018-05-10T07:59:17.360Z,59.30
2018-05-10T08:01:43.878Z,59.20
2018-05-10T08:04:11.256Z,59.30
2018-05-10T08:06:38.185Z,59.10
2018-05-10T08:09:05.859Z,56.60
2018-05-10T08:11:32.078Z,56.70
2018-05-10T08:13:59.040Z,56.50
2018-05-10T08:16:26.017Z,51.60
2018-05-10T08:18:52.673Z,51.30
2018-05-10T08:21:19.342Z,53.70
2018-05-10T08:23:47.322Z,51.70
2018-05-10T08:26:14.111Z,53.00
2018-05-10T08:28:41.249Z,52.50
2018-05-10T08:31:08.468Z,50.50
2018-05-10T08:33:34.728Z,50.70
2018-05-10T08:36:01.713Z,49.80
2018-05-10T08:38:29.369Z,49.70
2018-05-10T08:40:55.604Z,49.40
2018-05-10T08:43:21.849Z,49.70
2018-05-10T08:45:48.560Z,48.10
2018-05-10T08:48:15.822Z,48.50
2018-05-10T08:50:43.397Z,47.00
2018-05-10T08:53:10.356Z,49.10
2018-05-10T08:55:36.933Z,49.00
2018-05-10T08:58:03.573Z,48.60
2018-05-10T09:00:30.241Z,49.10
2018-05-10T09:02:56.861Z,47.50
2018-05-10T09:05:23.092Z,47.10
2018-05-10T09:07:49.743Z,46.20
2018-05-10T09:10:15.961Z,45.40
2018-05-10T09:12:42.183Z,45.30
2018-05-10T09:15:08.526Z,46.20
2018-05-10T09:17:34.701Z,45.60
2018-05-10T09:20:01.366Z,45.00
2018-05-10T09:22:28.662Z,45.60
2018-05-10T09:24:55.425Z,45.60
2018-05-10T09:27:22.253Z,44.80
2018-05-10T09:29:48.969Z,42.80
2018-05-10T09:32:15.935Z,44.70
2018-05-10T09:34:42.665Z,44.90
2018-05-10T09:37:09.641Z,43.90
2018-05-10T09:39:35.877Z,43.80
2018-05-10T09:42:02.141Z,42.90
2018-05-10T09:44:28.525Z,42.80
2018-05-10T09:46:56.329Z,43.50
2018-05-10T09:49:24.091Z,43.40
2018-05-10T09:51:50.968Z,42.30
2018-05-10T09:54:17.892Z,41.90
2018-05-10T09:56:44.750Z,41.70
2018-05-10T09:59:11.043Z,41.70
2018-05-10T10:01:37.520Z,41.60
2018-05-10T10:04:04.657Z,41.10
2018-05-10T10:06:31.007Z,41.80
2018-05-10T10:08:57.234Z,40.50
2018-05-10T10:11:23.806Z,41.30
2018-05-10T10:13:50.046Z,41.90
2018-05-10T10:16:16.665Z,41.20
2018-05-10T10:18:43.407Z,41.50
2018-05-10T10:21:10.055Z,40.80
2018-05-10T10:23:36.280Z,40.50
2018-05-10T10:26:03.357Z,40.50
2018-05-10T10:28:29.573Z,39.30
2018-05-10T10:30:56.247Z,39.30
2018-05-10T10:33:23.731Z,40.30
2018-05-10T10:35:51.201Z,38.10
2018-05-10T10:38:18.186Z,39.10
2018-05-10T10:40:45.127Z,39.10
2018-05-10T10:43:11.350Z,38.30
2018-05-10T10:45:37.992Z,38.70
2018-05-10T10:48:05.273Z,38.60
2018-05-10T10:50:31.993Z,38.70
2018-05-10T10:52:59.378Z,38.10
2018-05-10T10:55:26.271Z,38.10
2018-05-10T10:57:53.965Z,38.70
2018-05-10T11:00:20.925Z,38.90
2018-05-10T11:02:47.966Z,38.80
2018-05-10T11:05:15.361Z,39.00
2018-05-10T11:07:41.598Z,39.00
2018-05-10T11:10:07.812Z,39.40
2018-05-10T11:12:34.069Z,39.80
2018-05-10T11:15:00.297Z,39.80
2018-05-10T11:17:26.590Z,39.90
2018-05-10T11:19:53.892Z,40.60
2018-05-10T11:22:20.643Z,40.00
2018-05-10T11:24:46.881Z,39.70
2018-05-10T11:27:13.375Z,40.30
2018-05-10T11:29:40.991Z,40.90
2018-05-10T11:32:07.465Z,40.80
2018-05-10T11:34:33.689Z,40.70
2018-05-10T11:36:59.897Z,40.10
2018-05-10T11:39:26.142Z,39.80
2018-05-10T11:41:52.850Z,40.50
2018-05-10T11:44:19.063Z,41.70
2018-05-10T11:46:46.030Z,40.70
2018-05-10T11:49:13.374Z,40.60
2018-05-10T11:51:41.034Z,39.50
2018-05-10T11:54:12.686Z,39.60
2018-05-10T11:56:39.654Z,38.60
2018-05-10T11:59:07.070Z,38.20
2018-05-10T12:01:33.293Z,38.00
2018-05-10T12:03:59.817Z,38.30
2018-05-10T12:06:26.742Z,37.70
2018-05-10T12:08:53.722Z,38.00
2018-05-10T12:11:19.936Z,37.90
2018-05-10T12:13:46.177Z,38.80
2018-05-10T12:16:13.420Z,38.40
2018-05-10T12:18:40.763Z,37.80
2018-05-10T12:21:08.121Z,37.40
2018-05-10T12:23:35.416Z,37.60
2018-05-10T12:26:02.094Z,37.40
2018-05-10T12:28:28.698Z,36.20
2018-05-10T12:30:54.985Z,36.90
2018-05-10T12:33:21.633Z,38.10
2018-05-10T12:35:49.345Z,37.40
2018-05-10T12:38:15.574Z,37.40
2018-05-10T12:40:43.232Z,38.30
2018-05-10T12:43:09.448Z,38.30
2018-05-10T12:45:36.406Z,39.20
2018-05-10T12:48:04.718Z,39.30
2018-05-10T12:50:31.647Z,39.30
2018-05-10T12:52:57.854Z,39.20
2018-05-10T12:55:24.814Z,39.40
2018-05-10T12:57:51.928Z,40.00
2018-05-10T13:00:18.726Z,40.00
2018-05-10T13:02:46.488Z,40.70
2018-05-10T13:05:12.710Z,40.80
2018-05-10T13:07:38.919Z,41.20
2018-05-10T13:10:05.184Z,41.10
2018-05-10T13:12:31.393Z,41.90
2018-05-10T13:14:58.622Z,41.60
2018-05-10T13:17:25.369Z,41.70
2018-05-10T13:19:52.385Z,42.00
2018-05-10T13:22:20.045Z,41.40
2018-05-10T13:24:47.723Z,42.40
2018-05-10T13:27:14.723Z,42.10
2018-05-10T13:29:40.954Z,42.10
2018-05-10T13:32:07.182Z,41.40
2018-05-10T13:34:33.406Z,41.00
2018-05-10T13:37:00.127Z,41.20
2018-05-10T13:39:26.353Z,41.00
2018-05-10T13:41:53.330Z,41.20
2018-05-10T13:44:20.243Z,41.20
2018-05-10T13:46:48.215Z,40.60
2018-05-10T13:49:16.205Z,40.60
2018-05-10T13:51:43.974Z,40.90
2018-05-10T13:54:11.262Z,41.20
2018-05-10T13:56:37.821Z,41.10
2018-05-10T13:59:04.089Z,41.90
2018-05-10T14:01:30.289Z,42.50
2018-05-10T14:03:57.086Z,42.20
2018-05-10T14:06:24.600Z,43.10
2018-05-10T14:08:50.825Z,43.00
2018-05-10T14:11:17.799Z,44.60
2018-05-10T14:13:44.689Z,45.40
2018-05-10T14:16:11.242Z,47.30
2018-05-10T14:18:37.857Z,47.40
2018-05-10T14:21:04.851Z,49.00
2018-05-10T14:23:31.775Z,49.10
2018-05-10T14:25:58.014Z,49.80
2018-05-10T14:28:24.238Z,49.80
2018-05-10T14:30:51.240Z,53.40
2018-05-10T14:33:17.476Z,53.90
2018-05-10T14:35:44.102Z,58.10
2018-05-10T14:38:10.311Z,59.60
2018-05-10T14:40:36.543Z,61.40
2018-05-10T14:43:02.825Z,59.40
2018-05-10T14:45:29.709Z,59.40
2018-05-10T14:47:57.012Z,57.80
2018-05-10T14:50:23.685Z,58.10
2018-05-10T14:52:50.368Z,58.80
2018-05-10T14:55:16.625Z,58.60
2018-05-10T14:57:43.169Z,61.60
2018-05-10T15:00:10.085Z,63.40
2018-05-10T15:02:37.639Z,62.30
2018-05-10T15:05:04.671Z,61.20
2018-05-10T15:07:31.653Z,61.20
2018-05-10T15:09:59.185Z,67.10
2018-05-10T15:12:25.831Z,66.80
2018-05-10T15:14:53.308Z,70.40
2018-05-10T15:17:20.914Z,68.00
2018-05-10T15:19:47.730Z,68.20
2018-05-10T15:22:15.462Z,71.40
2018-05-10T15:24:41.702Z,71.10
2018-05-10T15:27:07.943Z,72.10
2018-05-10T15:29:34.205Z,71.00
2018-05-10T15:32:01.913Z,69.60
2018-05-10T15:34:28.139Z,69.90
2018-05-10T15:36:54.367Z,71.10
2018-05-10T15:39:20.633Z,73.00
2018-05-10T15:41:46.871Z,73.30
2018-05-10T15:44:14.049Z,77.60
2018-05-10T15:46:40.326Z,75.40
2018-05-10T15:49:07.128Z,74.80
2018-05-10T15:51:34.556Z,77.60
2018-05-10T15:54:00.779Z,78.20
2018-05-10T15:56:27.438Z,75.90
2018-05-10T15:58:53.683Z,77.20
2018-05-10T16:01:19.905Z,75.90
2018-05-10T16:03:46.453Z,76.60
2018-05-10T16:06:13.145Z,78.80
2018-05-10T16:08:40.117Z,80.60
2018-05-10T16:11:07.142Z,80.80
2018-05-10T16:13:34.618Z,76.90
2018-05-10T16:16:00.840Z,77.90
2018-05-10T16:18:28.481Z,75.90
2018-05-10T16:20:54.710Z,75.80
2018-05-10T16:23:21.312Z,77.40
2018-05-10T16:25:47.545Z,77.50
2018-05-10T16:28:13.785Z,77.10
2018-05-10T16:30:40.317Z,76.20
2018-05-10T16:33:07.112Z,76.50
2018-05-10T16:35:33.625Z,75.90
2018-05-10T16:37:59.941Z,75.80
2018-05-10T16:40:26.758Z,75.60
2018-05-10T16:42:54.325Z,71.90
2018-05-10T16:45:21.572Z,72.20
2018-05-10T16:47:49.541Z,68.50
2018-05-10T16:50:16.763Z,68.40
2018-05-10T16:52:43.485Z,68.30
2018-05-10T16:55:09.730Z,70.50
2018-05-10T16:57:36.517Z,71.10
2018-05-10T17:00:03.191Z,68.30
2018-05-10T17:02:30.762Z,68.90
2018-05-10T17:04:57.350Z,68.90
2018-05-10T17:07:23.973Z,69.40
2018-05-10T17:09:50.181Z,73.20
2018-05-10T17:12:16.453Z,73.60
2018-05-10T17:14:43.230Z,72.60
2018-05-10T17:17:12.041Z,73.80
2018-05-10T17:19:39.686Z,73.60
2018-05-10T17:22:06.526Z,73.70
2018-05-10T17:24:33.033Z,72.50
2018-05-10T17:26:59.264Z,73.40
2018-05-10T17:29:25.890Z,73.80
2018-05-10T17:31:52.718Z,74.60
2018-05-10T17:34:19.727Z,73.90
2018-05-10T17:36:46.645Z,73.90
2018-05-10T17:39:13.368Z,74.30
2018-05-10T17:41:40.345Z,73.70
2018-05-10T17:44:06.595Z,73.70
2018-05-10T17:46:33.256Z,74.10
2018-05-10T17:48:59.881Z,74.20
2018-05-10T17:51:26.597Z,73.80
2018-05-10T17:53:52.829Z,73.40
2018-05-10T17:56:19.567Z,74.50
2018-05-10T17:59:02.014Z,76.40
2018-05-10T18:01:28.585Z,76.60
2018-05-10T18:03:55.440Z,76.30
2018-05-10T18:06:22.152Z,78.10
2018-05-10T18:08:48.381Z,77.70
2018-05-10T18:11:14.605Z,77.60
2018-05-10T18:13:41.279Z,77.80
2018-05-10T18:16:07.513Z,75.40
2018-05-10T18:18:34.394Z,75.10
2018-05-10T18:21:01.371Z,76.10
2018-05-10T18:23:28.125Z,76.10
2018-05-10T18:25:55.432Z,76.80
2018-05-10T18:28:22.982Z,77.80
2018-05-10T18:30:49.249Z,77.90
2018-05-10T18:33:16.447Z,78.80
2018-05-10T18:35:42.998Z,78.80
2018-05-10T18:38:09.552Z,79.50
2018-05-10T18:40:35.792Z,79.80
2018-05-10T18:43:02.719Z,79.70
2018-05-10T18:45:29.394Z,78.60
2018-05-10T18:47:56.044Z,78.50
2018-05-10T18:50:23.126Z,78.80
2018-05-10T18:52:50.329Z,79.10
2018-05-10T18:55:17.014Z,79.20
2018-05-10T18:57:44.490Z,77.60
2018-05-10T19:00:11.107Z,78.30
2018-05-10T19:02:38.077Z,78.50
2018-05-10T19:05:04.342Z,78.80
2018-05-10T19:07:30.653Z,77.30
2018-05-10T19:09:57.169Z,77.10
2018-05-10T19:12:23.869Z,75.80
2018-05-10T19:14:51.280Z,75.30
2018-05-10T19:17:18.252Z,75.40
2018-05-10T19:19:44.967Z,75.40
2018-05-10T19:22:12.553Z,76.40
2018-05-10T19:24:40.448Z,76.30
2018-05-10T19:27:06.656Z,76.20
2018-05-10T19:29:33.626Z,76.00
2018-05-10T19:31:59.893Z,76.00
2018-05-10T19:34:26.953Z,75.40
2018-05-10T19:36:53.393Z,76.30
2018-05-10T19:39:19.633Z,76.80
2018-05-10T19:41:45.902Z,77.60
2018-05-10T19:44:13.577Z,76.60
2018-05-10T19:53:27.053Z,76.00
2018-05-10T19:55:53.834Z,76.30
2018-05-10T19:58:21.278Z,77.50
2018-05-10T20:00:47.969Z,77.50
2018-05-10T20:03:14.639Z,78.50
2018-05-10T20:05:40.881Z,78.60
2018-05-10T20:08:07.752Z,79.10
2018-05-10T20:10:33.973Z,79.70
2018-05-10T20:13:00.762Z,78.80
2018-05-10T20:15:26.984Z,79.80
2018-05-10T20:17:53.259Z,80.50
2018-05-10T20:20:20.865Z,81.40
2018-05-10T20:22:47.417Z,79.80
2018-05-10T20:25:15.028Z,80.40
2018-05-10T20:27:41.254Z,80.40
2018-05-10T20:30:07.945Z,80.60
2018-05-10T20:32:34.165Z,80.40
2018-05-10T20:35:00.406Z,81.20
2018-05-10T20:37:26.682Z,81.60
2018-05-10T20:39:52.915Z,82.70
2018-05-10T20:42:19.233Z,81.90
2018-05-10T20:44:46.575Z,82.50
2018-05-10T20:47:13.675Z,82.50
2018-05-10T20:49:40.455Z,82.60
2018-05-10T20:52:07.141Z,81.70
2018-05-10T20:54:34.569Z,83.80
2018-05-10T20:57:01.315Z,83.90
2018-05-10T20:59:28.102Z,83.30
2018-05-10T21:01:55.078Z,83.20
2018-05-10T21:04:21.816Z,83.50
2018-05-10T21:06:48.759Z,83.40
2018-05-10T21:09:14.973Z,83.20
2018-05-10T21:11:41.933Z,85.20
2018-05-10T21:14:09.341Z,84.50
2018-05-10T21:16:35.892Z,84.70
2018-05-10T21:19:02.629Z,85.10
2018-05-10T21:21:29.733Z,84.00
2018-05-10T21:23:56.733Z,86.80
2018-05-10T21:26:22.953Z,87.00
2018-05-10T21:28:50.072Z,85.50
2018-05-10T21:31:17.534Z,86.10
2018-05-10T21:33:44.589Z,86.50
2018-05-10T21:36:10.752Z,86.80
2018-05-10T21:38:36.981Z,87.60
2018-05-10T21:41:03.685Z,87.30
2018-05-10T21:43:30.645Z,89.30
2018-05-10T21:45:58.253Z,88.70
2018-05-10T21:48:25.616Z,88.80
2018-05-10T21:50:52.991Z,88.20
2018-05-10T21:53:19.851Z,89.30
2018-05-10T21:55:46.375Z,88.40
2018-05-10T21:58:12.612Z,87.60
2018-05-10T22:00:38.831Z,86.80
2018-05-10T22:03:06.983Z,87.50
2018-05-10T22:05:33.232Z,87.90
2018-05-10T22:07:59.458Z,88.90
2018-05-10T22:10:26.903Z,88.30
2018-05-10T22:12:53.897Z,86.80
2018-05-10T22:15:20.781Z,86.90
2018-05-10T22:17:47.749Z,88.10
2018-05-10T22:20:15.017Z,88.70
2018-05-10T22:22:42.093Z,88.80
2018-05-10T22:25:08.900Z,88.20
2018-05-10T22:27:36.295Z,88.40
2018-05-10T22:30:02.591Z,88.60
2018-05-10T22:32:29.301Z,89.90
2018-05-10T22:34:55.520Z,90.80
2018-05-10T22:37:21.765Z,88.90
2018-05-10T22:39:48.053Z,90.10
2018-05-10T22:42:15.023Z,89.70
2018-05-10T22:44:41.345Z,89.90
2018-05-10T22:47:08.052Z,88.90
2018-05-10T22:49:35.101Z,92.90
2018-05-10T22:52:01.699Z,90.30
2018-05-10T22:54:28.277Z,89.00
2018-05-10T22:56:54.895Z,89.80
2018-05-10T22:59:21.135Z,89.30
2018-05-10T23:01:47.792Z,90.70
2018-05-10T23:04:14.448Z,90.50
2018-05-10T23:06:41.124Z,90.00
2018-05-10T23:09:08.072Z,89.10
2018-05-10T23:11:35.061Z,89.20
2018-05-10T23:14:01.974Z,89.20
2018-05-10T23:16:28.941Z,91.20
2018-05-10T23:18:56.080Z,91.40
2018-05-10T23:21:23.759Z,89.80
2018-05-10T23:23:50.341Z,89.90
2018-05-10T23:26:17.038Z,89.40
2018-05-10T23:28:43.991Z,88.50
2018-05-10T23:31:10.992Z,89.30
2018-05-10T23:33:37.229Z,89.10
2018-05-10T23:36:03.445Z,89.10
2018-05-10T23:38:29.773Z,90.20
2018-05-10T23:40:56.661Z,88.90
2018-05-10T23:43:22.897Z,89.30
2018-05-10T23:45:49.571Z,89.50
2018-05-10T23:48:16.845Z,89.30
2018-05-10T23:50:43.387Z,89.30
2018-05-10T23:53:09.741Z,89.20
2018-05-10T23:55:36.445Z,88.60
2018-05-10T23:58:03.415Z,89.40
